Terminal Aerodrome Forecast
Issued by NWS

Home | Current Version | Previous Version | Text Only | Print | Product List | Glossary On
Versions: 1 2 3 4 5 6 7 8 9 10 11 12 13 14 15 16 17 18 19 20 21 22 23 24 25 26
695
FTUS41 KPBZ 101924 AAA
TAFZZV
TAF AMD
KZZV 101924Z 1019/1118 26014G20KT 1SM -SHSN OVC015
     FM110100 27012KT P6SM VCSH OVC025
     FM111200 27010KT P6SM OVC035=

USA.gov is the U.S. government's official web portal to all federal, state and local government web resources and services.